Time;durP1;ratioP1;P1;durP2;ratioP2;P2;SDS_P1;SDS_P2;PMS_P1;PMS_P2;Temp;Humidity;BMP_temperature;BMP_pressure;BME280_temperature;BME280_humidity;BME280_pressure;Samples;Min_cycle;Max_cycle;Signal;HPM_P1;HPM_P2
2022/04/25 00:01:32;;;;;;;13.38;7.63;;;;;;;10.67;63.15;98676.22;5090880;28;20036;-66
2022/04/25 00:03:57;;;;;;;11.23;8.65;;;;;;;10.68;64.11;98672.63;5092756;28;20091;-66
2022/04/25 00:06:23;;;;;;;8.93;7.03;;;;;;;10.60;63.58;98680.22;5092908;28;20391;-68
2022/04/25 00:08:48;;;;;;;10.50;6.97;;;;;;;10.60;63.45;98686.34;5094759;28;20040;-67
2022/04/25 00:11:13;;;;;;;12.65;8.35;;;;;;;10.61;63.39;98690.69;5092846;28;20055;-67
2022/04/25 00:13:39;;;;;;;10.07;7.63;;;;;;;10.64;64.17;98697.53;5095015;28;20039;-67
2022/04/25 00:16:05;;;;;;;14.95;8.68;;;;;;;10.62;63.66;98694.16;5094273;28;20036;-65
2022/04/25 00:18:30;;;;;;;8.38;6.30;;;;;;;10.56;64.15;98684.88;5094017;28;20039;-68
2022/04/25 00:20:56;;;;;;;9.70;7.82;;;;;;;10.58;64.34;98687.38;5092418;28;20032;-68
2022/04/25 00:23:23;;;;;;;11.15;7.35;;;;;;;10.58;64.45;98693.50;5091307;28;20119;-67
2022/04/25 00:25:48;;;;;;;12.98;8.88;;;;;;;10.57;66.22;98689.19;5091788;28;20032;-68
2022/04/25 00:28:14;;;;;;;12.93;8.15;;;;;;;10.55;66.07;98692.88;5073309;28;20043;-67
2022/04/25 00:30:39;;;;;;;11.68;8.48;;;;;;;10.53;65.86;98693.81;5091154;28;20052;-68
2022/04/25 00:33:04;;;;;;;14.95;9.15;;;;;;;10.50;65.49;98699.28;5089146;28;20122;-67
2022/04/25 00:35:30;;;;;;;11.10;8.68;;;;;;;10.39;65.68;98701.78;5091077;28;20028;-68
2022/04/25 00:37:56;;;;;;;11.05;8.32;;;;;;;10.38;65.73;98702.72;5091200;28;20695;-69
2022/04/25 00:40:23;;;;;;;11.20;7.97;;;;;;;10.39;66.32;98699.16;5090521;28;20032;-69
2022/04/25 00:42:50;;;;;;;10.25;6.45;;;;;;;10.42;66.59;98700.75;5090393;28;20036;-68
2022/04/25 00:45:16;;;;;;;10.85;6.45;;;;;;;10.42;65.38;98704.22;5091043;28;20044;-68
2022/04/25 00:47:42;;;;;;;9.52;7.60;;;;;;;10.30;65.42;98695.31;5090845;28;20108;-68
2022/04/25 00:50:08;;;;;;;11.55;8.38;;;;;;;10.27;65.80;98694.66;5090560;28;20549;-67
2022/04/25 00:52:35;;;;;;;11.30;8.07;;;;;;;10.26;66.36;98696.47;5089590;28;20036;-67
2022/04/25 00:55:02;;;;;;;10.77;7.82;;;;;;;10.30;67.14;98697.97;5090822;28;20028;-67
2022/04/25 00:57:27;;;;;;;11.18;7.50;;;;;;;10.31;67.76;98701.44;5090839;28;20487;-68
2022/04/25 00:59:56;;;;;;;10.65;8.45;;;;;;;10.26;67.22;98703.50;5092948;28;20040;-67
2022/04/25 01:02:21;;;;;;;10.90;7.45;;;;;;;10.26;66.72;98708.75;5084818;28;20115;-67
2022/04/25 01:04:47;;;;;;;13.93;8.40;;;;;;;10.18;66.55;98705.78;5093488;28;20123;-68
2022/04/25 01:07:12;;;;;;;13.52;9.05;;;;;;;10.19;67.14;98713.59;5092899;28;20094;-67
2022/04/25 01:09:38;;;;;;;10.80;8.15;;;;;;;10.18;67.90;98718.97;5093896;28;20028;-68
2022/04/25 01:12:04;;;;;;;13.07;8.00;;;;;;;10.25;67.75;98728.16;5092613;28;20118;-66
2022/04/25 01:14:29;;;;;;;12.52;9.18;;;;;;;10.28;67.19;98735.88;5093841;28;20081;-67
2022/04/25 01:16:54;;;;;;;12.15;9.02;;;;;;;10.27;67.70;98736.81;5090370;28;20031;-68
2022/04/25 01:19:20;;;;;;;10.63;7.68;;;;;;;10.23;66.16;98736.16;5090391;28;20043;-69
2022/04/25 01:21:57;;;;;;;11.23;7.70;;;;;;;10.18;65.16;98738.25;5088697;28;20029;-69
2022/04/25 01:27:18;;;;;;;9.68;6.32;;;;;;;10.25;64.91;98749.22;5090003;28;20044;-70
2022/04/25 01:29:43;;;;;;;10.05;7.22;;;;;;;10.28;64.67;98754.31;5089560;28;20028;-69
2022/04/25 01:32:09;;;;;;;8.80;6.97;;;;;;;10.32;64.45;98756.66;5089417;28;20035;-69
2022/04/25 01:34:38;;;;;;;8.13;6.30;;;;;;;10.28;63.21;98763.06;5088984;28;20024;-69
2022/04/25 01:37:06;;;;;;;7.63;5.95;;;;;;;10.24;63.27;98768.63;5090488;28;20563;-68
2022/04/25 01:39:36;;;;;;;6.13;5.53;;;;;;;10.25;63.25;98767.66;5090603;28;20119;-67
2022/04/25 01:42:02;;;;;;;15.18;6.82;;;;;;;10.27;63.61;98768.44;5091618;28;20109;-68
2022/04/25 01:44:28;;;;;;;10.40;6.35;;;;;;;10.25;64.11;98778.22;5091872;28;20043;-68
2022/04/25 01:46:53;;;;;;;14.52;6.70;;;;;;;10.24;65.17;98784.44;5090721;28;20032;-68
2022/04/25 01:49:18;;;;;;;10.25;7.60;;;;;;;10.13;66.92;98790.38;5090615;28;20047;-68
2022/04/25 01:51:44;;;;;;;11.52;7.05;;;;;;;9.97;68.27;98792.25;5090978;28;20040;-67
2022/04/25 01:54:09;;;;;;;11.13;6.65;;;;;;;9.77;69.03;98790.88;5092079;28;20116;-68
2022/04/25 01:56:35;;;;;;;10.85;7.32;;;;;;;9.62;70.68;98777.75;5092685;28;20081;-66
2022/04/25 01:59:00;;;;;;;12.95;7.05;;;;;;;9.51;71.90;98753.88;5093553;28;20039;-65
2022/04/25 02:01:25;;;;;;;10.52;8.73;;;;;;;9.36;73.87;98746.91;5091866;28;20036;-67
2022/04/25 02:03:51;;;;;;;9.40;6.65;;;;;;;9.21;73.24;98733.75;5094794;28;20032;-66
2022/04/25 02:06:16;;;;;;;10.23;6.88;;;;;;;9.04;72.90;98728.66;5094529;28;20118;-66
2022/04/25 02:08:43;;;;;;;7.75;6.05;;;;;;;8.93;74.30;98736.34;5093293;28;20032;-67
2022/04/25 02:11:21;;;;;;;8.07;6.57;;;;;;;8.87;74.56;98739.34;5089718;28;20059;-71
2022/04/25 02:13:51;;;;;;;10.88;7.60;;;;;;;8.80;75.63;98734.44;5089986;28;20032;-69
2022/04/25 02:16:20;;;;;;;9.35;8.25;;;;;;;8.79;75.47;98740.63;5090598;28;20035;-70
2022/04/25 02:18:46;;;;;;;9.68;7.57;;;;;;;8.70;76.28;98735.91;5091888;28;20032;-68
2022/04/25 02:21:11;;;;;;;9.50;7.93;;;;;;;8.67;77.05;98738.72;5095893;28;20032;-70
2022/04/25 02:23:38;;;;;;;9.63;7.32;;;;;;;8.68;76.59;98743.03;5098740;28;20039;-69
2022/04/25 02:26:05;;;;;;;10.25;7.72;;;;;;;8.74;77.47;98742.69;5097159;28;20149;-69
2022/04/25 02:28:31;;;;;;;17.40;8.10;;;;;;;8.79;77.72;98738.00;5093825;28;20032;-69
2022/04/25 02:30:57;;;;;;;11.82;7.38;;;;;;;8.79;77.20;98747.69;5095866;28;20058;-69
2022/04/25 02:33:23;;;;;;;13.02;9.75;;;;;;;8.82;76.75;98742.25;5096454;28;20081;-69
2022/04/25 02:35:49;;;;;;;11.75;8.98;;;;;;;8.83;77.53;98741.28;5097912;28;20032;-69
2022/04/25 02:38:15;;;;;;;9.40;7.60;;;;;;;8.80;77.43;98749.38;5096375;28;20036;-69
2022/04/25 02:40:40;;;;;;;13.73;9.13;;;;;;;8.83;79.29;98736.03;5099600;28;20506;-69
2022/04/25 02:43:05;;;;;;;10.07;8.50;;;;;;;8.84;78.55;98737.75;5099027;28;20028;-70
2022/04/25 02:45:31;;;;;;;10.80;8.50;;;;;;;8.80;79.86;98737.06;5096201;28;20043;-69
2022/04/25 02:47:58;;;;;;;11.85;8.63;;;;;;;8.82;79.04;98740.44;5094763;28;20032;-68
2022/04/25 02:50:24;;;;;;;8.52;6.93;;;;;;;8.85;78.33;98736.78;5089544;28;20528;-69
2022/04/25 02:52:53;;;;;;;10.38;7.32;;;;;;;8.78;76.99;98738.94;5100569;28;20024;-70
2022/04/25 02:55:21;;;;;;;13.95;7.80;;;;;;;8.77;76.88;98733.78;5095957;28;20051;-69
2022/04/25 02:57:47;;;;;;;9.05;8.00;;;;;;;8.80;77.31;98729.19;5087453;28;20032;-70
2022/04/25 03:00:13;;;;;;;9.82;8.77;;;;;;;8.76;79.24;98724.19;5084806;28;20476;-67
2022/04/25 03:02:38;;;;;;;11.82;9.02;;;;;;;8.77;79.62;98726.75;5076476;28;20038;-68
2022/04/25 03:05:05;;;;;;;12.15;9.55;;;;;;;8.80;79.28;98731.81;5093359;28;20028;-67
2022/04/25 03:07:30;;;;;;;12.65;8.50;;;;;;;8.87;80.67;98739.34;5095698;28;20051;-69
2022/04/25 03:09:56;;;;;;;8.70;7.15;;;;;;;8.90;80.28;98741.78;5093060;28;20104;-67
2022/04/25 03:12:21;;;;;;;7.63;6.82;;;;;;;8.90;79.44;98742.63;5092036;28;20035;-69
2022/04/25 03:14:46;;;;;;;10.80;9.63;;;;;;;8.88;79.49;98738.41;5092873;28;20036;-69
2022/04/25 03:17:12;;;;;;;13.00;9.23;;;;;;;8.87;79.99;98736.72;5092910;28;20032;-69
2022/04/25 03:19:37;;;;;;;10.73;9.63;;;;;;;8.81;79.02;98737.91;5091775;28;20116;-71
2022/04/25 03:22:06;;;;;;;12.50;9.93;;;;;;;8.78;78.27;98733.69;5090481;28;20036;-69
2022/04/25 03:24:32;;;;;;;10.82;7.80;;;;;;;8.76;79.43;98734.69;5092540;28;20032;-69
2022/04/25 03:26:57;;;;;;;10.10;7.68;;;;;;;8.72;79.39;98734.06;5092255;28;20117;-70
2022/04/25 03:29:23;;;;;;;9.32;7.35;;;;;;;8.68;78.87;98742.19;5092789;28;20425;-69
2022/04/25 03:31:48;;;;;;;11.98;9.25;;;;;;;8.65;79.92;98739.75;5090219;28;20032;-68
2022/04/25 03:34:14;;;;;;;10.77;8.10;;;;;;;8.60;79.75;98735.59;5092827;28;20125;-67
2022/04/25 03:36:39;;;;;;;10.27;8.35;;;;;;;8.56;79.57;98733.25;5093014;28;20133;-68
2022/04/25 03:39:04;;;;;;;12.07;8.07;;;;;;;8.54;79.33;98732.47;5091990;28;20036;-69
2022/04/25 03:41:31;;;;;;;10.00;8.27;;;;;;;8.51;79.95;98730.03;5092216;28;20028;-68
2022/04/25 03:43:57;;;;;;;11.13;8.48;;;;;;;8.49;80.27;98726.66;5095129;28;20032;-67
2022/04/25 03:46:22;;;;;;;9.43;7.72;;;;;;;8.48;80.75;98724.97;5095904;28;20190;-67
2022/04/25 03:48:47;;;;;;;14.55;10.02;;;;;;;8.47;81.11;98728.53;5096512;28;20040;-67
2022/04/25 03:51:14;;;;;;;10.73;8.23;;;;;;;8.41;80.89;98732.34;5095454;28;20095;-69
2022/04/25 03:53:39;;;;;;;12.63;10.00;;;;;;;8.35;80.67;98728.25;5095533;28;20040;-68
2022/04/25 03:58:48;;;;;;;8.95;7.47;;;;;;;8.36;81.63;98727.31;5095364;28;20514;-66
2022/04/25 04:01:14;;;;;;;12.68;11.00;;;;;;;8.32;81.31;98730.22;5093806;28;20036;-68
2022/04/25 04:03:39;;;;;;;9.57;7.65;;;;;;;8.27;81.43;98727.88;5096364;28;20035;-68
2022/04/25 04:06:05;;;;;;;10.98;7.18;;;;;;;8.24;81.22;98728.00;5094468;28;20114;-67
2022/04/25 04:08:31;;;;;;;7.60;6.10;;;;;;;8.22;80.30;98729.03;5095749;28;20028;-67
2022/04/25 04:10:56;;;;;;;9.60;8.43;;;;;;;8.19;81.35;98732.69;5093609;28;20475;-66
2022/04/25 04:13:21;;;;;;;10.30;8.77;;;;;;;8.13;80.80;98735.66;5094900;28;20085;-67
2022/04/25 04:15:47;;;;;;;8.13;7.03;;;;;;;8.10;81.49;98735.84;5095734;28;20032;-67
2022/04/25 04:18:12;;;;;;;9.27;8.23;;;;;;;8.11;81.50;98740.16;5093712;28;20032;-67
2022/04/25 04:20:38;;;;;;;9.45;7.60;;;;;;;8.13;81.23;98738.28;5095067;28;20124;-67
2022/04/25 04:23:03;;;;;;;9.13;8.20;;;;;;;8.10;81.92;98746.34;5094536;28;20060;-67
2022/04/25 04:25:32;;;;;;;11.32;8.80;;;;;;;8.05;82.00;98745.72;5095185;28;20039;-68
2022/04/25 04:27:59;;;;;;;11.00;9.05;;;;;;;8.00;82.26;98750.38;5095063;28;20031;-68
2022/04/25 04:30:24;;;;;;;12.70;10.40;;;;;;;7.92;82.92;98750.81;5093609;28;20058;-69
2022/04/25 04:32:52;;;;;;;12.07;10.38;;;;;;;7.88;83.17;98757.19;5092580;28;20500;-68
2022/04/25 04:38:04;;;;;;;14.88;11.18;;;;;;;7.86;82.85;98769.53;5094671;28;20062;-68
2022/04/25 04:40:30;;;;;;;12.13;9.40;;;;;;;7.87;83.54;98764.19;5094208;28;20036;-68
2022/04/25 04:42:56;;;;;;;14.50;12.32;;;;;;;7.89;83.64;98764.94;5094127;28;20377;-67
2022/04/25 04:45:21;;;;;;;15.68;11.93;;;;;;;7.90;83.26;98768.41;5094444;28;20097;-67
2022/04/25 04:47:46;;;;;;;15.77;13.60;;;;;;;7.87;84.07;98765.97;5094704;28;20127;-67
2022/04/25 04:50:17;;;;;;;22.58;17.27;;;;;;;7.84;84.28;98771.38;5094438;28;20518;-66
2022/04/25 04:52:42;;;;;;;15.48;11.35;;;;;;;7.86;84.14;98773.00;5094590;28;20028;-66
2022/04/25 04:55:08;;;;;;;22.33;17.35;;;;;;;7.89;83.82;98782.47;5092956;28;20032;-66
2022/04/25 04:57:33;;;;;;;18.02;15.95;;;;;;;7.87;85.08;98781.72;5094227;28;20480;-68
2022/04/25 04:59:58;;;;;;;22.73;14.45;;;;;;;7.86;84.98;98786.13;5093584;28;20454;-69
2022/04/25 05:02:24;;;;;;;14.43;11.82;;;;;;;7.78;84.12;98788.31;5089961;28;20032;-70
2022/04/25 05:04:50;;;;;;;11.63;9.45;;;;;;;7.69;83.40;98788.81;5090695;28;20092;-70
2022/04/25 05:07:16;;;;;;;14.80;11.77;;;;;;;7.63;83.18;98791.75;5090762;28;20514;-70
2022/04/25 05:09:41;;;;;;;11.38;9.77;;;;;;;7.52;83.20;98794.94;5090877;28;20067;-70
2022/04/25 05:12:07;;;;;;;14.70;10.48;;;;;;;7.45;83.62;98804.06;5091841;28;20032;-66
2022/04/25 05:14:32;;;;;;;9.20;8.18;;;;;;;7.38;83.56;98797.44;5093074;28;20040;-67
2022/04/25 05:16:57;;;;;;;10.25;8.57;;;;;;;7.35;83.01;98798.44;5092652;28;20028;-66
2022/04/25 05:19:23;;;;;;;9.57;8.23;;;;;;;7.34;83.54;98799.38;5091580;28;20460;-69
2022/04/25 05:21:48;;;;;;;9.88;8.45;;;;;;;7.46;83.45;98800.53;5092137;28;20047;-69
2022/04/25 05:24:14;;;;;;;12.43;9.88;;;;;;;7.57;82.92;98811.28;5093074;28;20089;-65
2022/04/25 05:26:40;;;;;;;12.48;9.60;;;;;;;7.64;82.20;98802.16;5092769;28;20492;-67
2022/04/25 05:29:06;;;;;;;11.52;9.80;;;;;;;7.59;82.24;98803.34;5092750;28;20032;-66
2022/04/25 05:31:32;;;;;;;11.25;9.50;;;;;;;7.59;83.07;98806.81;5091913;28;20032;-68
2022/04/25 05:33:57;;;;;;;12.82;10.95;;;;;;;7.75;83.54;98801.56;5092064;28;20376;-66
2022/04/25 05:36:24;;;;;;;14.38;11.50;;;;;;;7.85;82.73;98808.06;5092281;28;20499;-69
2022/04/25 05:38:49;;;;;;;12.25;9.68;;;;;;;7.99;81.73;98806.44;5091843;28;20032;-68
2022/04/25 05:41:14;;;;;;;13.25;11.68;;;;;;;8.13;81.63;98815.25;5090895;28;20637;-69
2022/04/25 05:43:40;;;;;;;13.18;10.70;;;;;;;8.21;80.58;98817.47;5092145;28;20359;-67
2022/04/25 05:46:06;;;;;;;13.43;11.73;;;;;;;8.22;81.02;98819.19;5091404;28;20484;-69
2022/04/25 05:54:00;;;;;;;12.45;10.00;;;;;;;8.28;80.93;98820.59;5089965;28;20407;-69
2022/04/25 05:56:26;;;;;;;13.50;11.80;;;;;;;8.31;80.63;98823.91;5090369;28;20032;-70
2022/04/25 05:58:51;;;;;;;16.23;12.60;;;;;;;8.32;80.34;98832.66;5089796;28;20032;-69
2022/04/25 06:01:16;;;;;;;14.90;11.30;;;;;;;8.33;80.30;98829.06;5094895;28;20085;-68
2022/04/25 06:03:42;;;;;;;14.45;12.23;;;;;;;8.37;80.09;98831.44;5097575;28;20043;-69
2022/04/25 06:06:07;;;;;;;15.23;13.32;;;;;;;8.41;80.28;98836.56;5093405;28;20368;-69
2022/04/25 06:08:32;;;;;;;15.77;13.20;;;;;;;8.50;80.67;98834.25;5090925;28;20077;-66
2022/04/25 06:10:58;;;;;;;20.50;14.52;;;;;;;8.63;79.93;98839.66;5090635;28;20028;-68
2022/04/25 06:13:25;;;;;;;16.17;13.90;;;;;;;8.70;79.98;98846.28;5090683;28;20042;-68
2022/04/25 06:15:51;;;;;;;17.80;15.30;;;;;;;8.72;78.90;98839.16;5090003;28;20028;-68
2022/04/25 06:18:17;;;;;;;19.25;17.08;;;;;;;8.73;79.46;98850.50;5089612;28;20039;-69
2022/04/25 06:20:42;;;;;;;17.98;15.80;;;;;;;8.70;79.41;98850.69;5090461;28;20032;-71
2022/04/25 06:23:07;;;;;;;19.23;15.43;;;;;;;8.63;79.27;98854.59;5090150;28;20040;-68
2022/04/25 06:25:33;;;;;;;18.00;15.25;;;;;;;8.66;78.58;98857.88;5089913;28;20032;-66
2022/04/25 06:28:00;;;;;;;16.73;14.32;;;;;;;8.70;78.66;98856.78;5091360;28;20071;-69
2022/04/25 06:30:28;;;;;;;23.35;18.88;;;;;;;8.78;78.23;98864.22;5091709;28;20028;-68
2022/04/25 06:32:54;;;;;;;20.80;16.60;;;;;;;8.81;78.71;98857.03;5087115;28;20115;-70
2022/04/25 06:35:20;;;;;;;24.58;16.77;;;;;;;8.89;78.13;98861.84;5089605;28;20169;-70
2022/04/25 06:37:45;;;;;;;16.15;14.40;;;;;;;8.96;78.38;98855.31;5090038;28;20493;-68
2022/04/25 06:40:11;;;;;;;17.30;15.02;;;;;;;9.03;78.20;98859.28;5090197;28;20047;-69
2022/04/25 06:42:37;;;;;;;18.27;15.68;;;;;;;9.15;76.94;98864.75;5092822;28;20464;-66
2022/04/25 06:45:02;;;;;;;21.55;16.80;;;;;;;9.25;76.99;98868.53;5094320;28;20048;-66
2022/04/25 06:47:28;;;;;;;23.40;18.10;;;;;;;9.35;74.99;98866.19;5094261;28;20028;-68
2022/04/25 06:49:54;;;;;;;20.92;12.70;;;;;;;9.49;75.97;98866.25;5093228;28;20028;-68
2022/04/25 06:52:20;;;;;;;17.08;14.05;;;;;;;9.61;75.21;98873.41;5090998;28;20422;-67
2022/04/25 06:54:46;;;;;;;16.60;14.77;;;;;;;9.67;75.29;98880.94;5091695;28;20655;-67
2022/04/25 06:57:12;;;;;;;23.65;17.17;;;;;;;9.85;74.46;98870.25;5090262;28;20032;-66
2022/04/25 06:59:37;;;;;;;21.23;17.35;;;;;;;9.95;75.11;98876.63;5089225;28;20093;-67
2022/04/25 07:02:03;;;;;;;26.77;15.70;;;;;;;10.00;74.88;98871.94;5088577;28;20572;-66
2022/04/25 07:04:28;;;;;;;20.50;16.88;;;;;;;10.07;74.65;98878.50;5089427;28;20028;-67
2022/04/25 07:06:53;;;;;;;21.65;16.40;;;;;;;10.15;73.72;98878.03;5089875;28;20156;-67
2022/04/25 07:09:19;;;;;;;22.27;15.43;;;;;;;10.15;72.23;98879.81;5089436;28;20055;-67
2022/04/25 07:11:46;;;;;;;19.33;14.77;;;;;;;10.17;71.96;98875.31;5088766;28;20416;-65
2022/04/25 07:14:16;;;;;;;15.27;12.95;;;;;;;10.30;72.71;98881.53;5089642;28;20047;-65
2022/04/25 07:16:45;;;;;;;17.20;15.35;;;;;;;10.33;71.91;98883.97;5089258;28;20032;-67
2022/04/25 07:19:14;;;;;;;19.52;17.08;;;;;;;10.32;71.05;98882.28;5088493;28;20039;-68
2022/04/25 07:29:52;;;;;;;20.13;13.95;;;;;;;10.91;69.43;98882.88;5092861;28;20031;-53
2022/04/25 07:32:23;;;;;;;18.60;13.65;;;;;;;11.15;67.20;98882.22;5090960;28;20028;-52
2022/04/25 07:34:48;;;;;;;36.97;19.70;;;;;;;11.04;66.78;98882.91;5094582;28;20055;-56
2022/04/25 07:37:19;;;;;;;26.77;16.92;;;;;;;10.96;68.74;98898.41;5093892;28;20123;-50
2022/04/25 07:39:48;;;;;;;21.58;15.57;;;;;;;10.84;66.75;98892.13;5092775;28;20035;-52
2022/04/25 07:42:15;;;;;;;20.55;15.80;;;;;;;11.04;67.90;98888.19;5091747;28;20040;-52
2022/04/25 07:44:42;;;;;;;18.85;17.00;;;;;;;11.39;66.07;98893.78;5079910;28;20063;-54
2022/04/25 07:47:07;;;;;;;19.38;15.88;;;;;;;11.89;64.71;98888.69;5072828;28;20036;-58
2022/04/25 07:49:33;;;;;;;20.27;18.13;;;;;;;11.85;65.19;98886.34;5067101;28;20373;-57
2022/04/25 07:51:59;;;;;;;18.70;16.45;;;;;;;11.96;64.65;98902.31;5085801;28;20035;-67
2022/04/25 07:54:25;;;;;;;18.52;15.27;;;;;;;11.93;65.45;98902.50;5087503;28;20028;-70
2022/04/25 07:56:51;;;;;;;21.00;16.15;;;;;;;11.71;65.11;98906.59;5087157;28;20523;-70
2022/04/25 07:59:17;;;;;;;23.75;17.33;;;;;;;11.61;66.65;98905.53;5085626;28;20124;-71
2022/04/25 08:01:42;;;;;;;19.75;17.60;;;;;;;11.71;65.48;98903.09;5086567;28;20139;-70
2022/04/25 08:04:07;;;;;;;20.10;17.63;;;;;;;11.92;64.77;98900.84;5087643;28;20101;-70
2022/04/25 08:06:33;;;;;;;19.65;14.93;;;;;;;12.14;63.54;98916.06;5086833;28;20043;-70
2022/04/25 08:08:58;;;;;;;20.63;17.55;;;;;;;12.16;62.39;98915.00;5087516;28;20076;-69
2022/04/25 08:11:24;;;;;;;22.10;19.10;;;;;;;11.94;62.60;98920.06;5087403;28;20040;-70
2022/04/25 08:19:19;;;;;;;25.38;18.05;;;;;;;11.72;64.83;98925.94;5070825;28;20036;-67
2022/04/25 08:21:45;;;;;;;32.63;21.05;;;;;;;11.69;64.75;98934.03;5073941;28;20043;-69
2022/04/25 08:24:11;;;;;;;19.70;17.40;;;;;;;11.69;64.14;98927.00;5072835;28;20032;-69
2022/04/25 08:26:37;;;;;;;21.15;15.00;;;;;;;11.50;65.23;98937.94;5062785;28;20031;-70
2022/04/25 08:29:09;;;;;;;32.75;18.55;;;;;;;11.50;65.90;98926.53;5081510;28;20111;-66
2022/04/25 08:31:36;;;;;;;25.77;17.30;;;;;;;11.39;66.92;98938.66;5090180;28;20406;-68
2022/04/25 08:34:09;;;;;;;20.92;18.25;;;;;;;11.34;67.25;98942.53;5078549;28;20055;-68
2022/04/25 08:36:35;;;;;;;23.65;19.30;;;;;;;11.20;66.65;98939.94;5070251;28;20036;-68
2022/04/25 08:39:03;;;;;;;21.50;19.02;;;;;;;11.05;68.34;98953.22;5069273;28;20108;-68
2022/04/25 08:41:34;;;;;;;21.08;17.73;;;;;;;11.06;67.23;98946.97;5069607;28;20032;-70
2022/04/25 08:44:01;;;;;;;29.58;19.38;;;;;;;11.16;66.75;98957.78;5070870;28;20045;-69
2022/04/25 08:46:30;;;;;;;28.08;21.17;;;;;;;11.17;65.89;98954.19;5070507;28;20032;-69
2022/04/25 08:48:57;;;;;;;27.40;17.98;;;;;;;11.26;66.82;98964.16;5069395;28;20116;-67
2022/04/25 08:51:26;;;;;;;33.10;21.42;;;;;;;11.15;66.89;98956.09;5073582;28;20036;-68
2022/04/25 08:53:53;;;;;;;23.50;19.42;;;;;;;11.18;65.69;98961.16;5089829;28;20032;-67
2022/04/25 08:56:22;;;;;;;27.67;19.60;;;;;;;11.30;65.94;98970.09;5072870;28;20113;-68
2022/04/25 08:58:48;;;;;;;21.45;17.67;;;;;;;11.33;65.32;98969.88;5089089;28;20059;-67
2022/04/25 09:01:15;;;;;;;35.90;21.98;;;;;;;11.24;66.40;98975.75;5092800;28;20028;-67
2022/04/25 09:03:40;;;;;;;35.80;23.33;;;;;;;11.23;66.44;98979.34;5094611;28;20123;-68
2022/04/25 09:06:06;;;;;;;26.70;18.38;;;;;;;11.25;66.52;98986.22;5092884;28;20059;-69
2022/04/25 09:08:32;;;;;;;24.65;20.05;;;;;;;11.24;65.70;98988.94;5091234;28;20089;-68
2022/04/25 09:13:43;;;;;;;30.65;21.95;;;;;;;11.42;66.08;98982.47;5091091;28;20101;-68
2022/04/25 09:16:12;;;;;;;27.60;20.17;;;;;;;11.39;65.90;98990.56;5091120;28;20032;-68
2022/04/25 09:18:37;;;;;;;24.35;20.10;;;;;;;11.61;65.63;98982.94;5090734;28;20035;-70
2022/04/25 09:21:05;;;;;;;29.35;20.10;;;;;;;11.87;64.95;98984.84;5090191;28;20491;-69
2022/04/25 09:23:30;;;;;;;26.33;21.08;;;;;;;12.06;64.01;98984.41;5090392;28;20122;-68
2022/04/25 09:26:07;;;;;;;29.70;20.25;;;;;;;12.38;62.70;98983.06;5091038;28;20522;-66
2022/04/25 09:28:44;;;;;;;24.08;20.83;;;;;;;12.53;62.20;98985.56;5092272;28;20032;-69
2022/04/25 09:31:13;;;;;;;28.13;22.45;;;;;;;12.51;61.68;98992.78;5090887;28;20506;-69
2022/04/25 09:33:38;;;;;;;29.48;21.67;;;;;;;12.33;64.16;98989.59;5090001;28;20384;-67
2022/04/25 09:36:05;;;;;;;26.27;20.25;;;;;;;12.27;63.08;98993.50;5089809;28;20074;-68
2022/04/25 09:38:34;;;;;;;25.85;22.23;;;;;;;12.23;63.05;98995.53;5090658;28;20051;-69
2022/04/25 09:41:00;;;;;;;33.97;23.98;;;;;;;12.13;64.01;98990.97;5089316;28;20059;-67
2022/04/25 09:43:31;;;;;;;36.92;22.90;;;;;;;11.94;64.63;98996.69;5088163;28;20491;-68
2022/04/25 09:46:06;;;;;;;36.67;22.70;;;;;;;11.99;64.89;98999.84;5089634;28;20435;-69
2022/04/25 09:48:32;;;;;;;27.30;21.17;;;;;;;12.10;63.64;99001.75;5090105;28;20031;-69
2022/04/25 09:51:03;;;;;;;24.73;20.70;;;;;;;12.00;63.92;98998.88;5089447;28;20078;-67
2022/04/25 09:53:57;;;;;;;29.08;24.50;;;;;;;12.02;64.11;99010.19;5089867;28;20514;-68
2022/04/25 09:56:25;;;;;;;32.08;22.95;;;;;;;11.95;63.74;99004.47;5089628;28;20032;-68
2022/04/25 09:59:07;;;;;;;24.85;22.13;;;;;;;11.95;63.22;99009.75;5088987;28;20043;-68
2022/04/25 10:01:36;;;;;;;29.55;20.10;;;;;;;12.05;63.11;99003.88;5088075;28;20076;-69
2022/04/25 10:04:03;;;;;;;23.65;20.20;;;;;;;12.33;62.60;99008.97;5089657;28;20483;-67
2022/04/25 10:06:34;;;;;;;22.67;19.92;;;;;;;12.59;61.34;99006.28;5090114;28;20391;-67
2022/04/25 10:09:02;;;;;;;28.67;23.70;;;;;;;12.93;60.12;99007.41;5089910;28;20044;-68
2022/04/25 10:11:33;;;;;;;25.67;22.25;;;;;;;13.12;59.82;99006.94;5090097;28;20095;-67
2022/04/25 10:14:00;;;;;;;22.45;20.13;;;;;;;13.06;60.04;99016.13;5091239;28;20055;-66
2022/04/25 10:16:27;;;;;;;28.92;22.63;;;;;;;13.39;57.74;99014.69;5091569;28;20036;-67
2022/04/25 10:18:53;;;;;;;30.88;24.00;;;;;;;14.42;55.43;99012.22;5090585;28;20042;-68
2022/04/25 10:21:19;;;;;;;41.25;25.65;;;;;;;14.27;55.71;99016.06;5089518;28;20578;-69
2022/04/25 10:23:45;;;;;;;27.27;22.58;;;;;;;15.53;51.04;99012.28;5089632;28;20395;-67
2022/04/25 10:26:11;;;;;;;23.92;20.27;;;;;;;15.68;51.03;99018.16;5083755;28;20040;-67
2022/04/25 10:28:48;;;;;;;24.30;21.63;;;;;;;16.68;49.72;99007.88;5093524;28;20032;-69
2022/04/25 10:31:21;;;;;;;22.55;19.25;;;;;;;17.12;47.98;99012.97;5090919;28;20051;-66
2022/04/25 10:33:54;;;;;;;23.50;21.08;;;;;;;17.47;47.76;99019.63;5089160;28;20028;-69
2022/04/25 10:36:38;;;;;;;23.73;19.83;;;;;;;17.07;47.94;99017.88;5089279;28;20055;-68
2022/04/25 10:39:20;;;;;;;21.75;19.17;;;;;;;16.67;48.07;99021.34;5089848;28;20032;-66
2022/04/25 10:44:46;;;;;;;21.02;18.55;;;;;;;18.65;42.99;99017.56;5089749;28;20038;-67
2022/04/25 10:47:13;;;;;;;22.42;20.13;;;;;;;19.09;41.90;99022.34;5089132;28;20040;-67
2022/04/25 10:49:44;;;;;;;25.88;22.27;;;;;;;18.81;42.84;99016.16;5089235;28;20457;-67
2022/04/25 10:52:37;;;;;;;22.00;19.52;;;;;;;18.40;42.50;99021.72;5088667;28;20115;-67
2022/04/25 10:55:23;;;;;;;19.80;17.90;;;;;;;17.78;43.47;99020.38;5093169;28;20109;-68
2022/04/25 10:58:04;;;;;;;19.13;17.23;;;;;;;16.98;44.43;99022.19;5093005;28;20400;-68
2022/04/25 11:00:36;;;;;;;19.98;17.98;;;;;;;16.33;45.47;99032.22;5092200;28;20066;-67
2022/04/25 11:03:13;;;;;;;19.95;17.58;;;;;;;15.86;46.31;99031.75;5092885;28;20043;-69
2022/04/25 11:05:40;;;;;;;19.58;17.17;;;;;;;15.62;46.93;99021.28;5093819;28;20036;-67
2022/04/25 11:08:18;;;;;;;18.15;16.25;;;;;;;15.89;46.84;99027.00;5093255;28;20084;-69
2022/04/25 11:10:47;;;;;;;22.30;18.90;;;;;;;16.26;46.48;99018.59;5092866;28;20032;-67
2022/04/25 11:13:13;;;;;;;20.23;16.05;;;;;;;16.56;45.99;99018.75;5092807;28;20032;-66
2022/04/25 11:15:56;;;;;;;19.05;17.05;;;;;;;16.51;46.38;99025.34;5092929;28;20043;-67
2022/04/25 11:18:34;;;;;;;24.83;21.33;;;;;;;16.07;47.82;99016.66;5092036;28;20064;-66
2022/04/25 11:21:05;;;;;;;22.95;17.70;;;;;;;15.79;48.95;99026.09;5092277;28;20051;-67
2022/04/25 11:23:46;;;;;;;29.05;20.58;;;;;;;15.50;49.58;99032.94;5074672;28;20426;-67
2022/04/25 11:26:36;;;;;;;26.27;20.52;;;;;;;15.16;49.79;99025.91;5094528;28;20028;-68
2022/04/25 11:29:08;;;;;;;27.98;19.40;;;;;;;15.17;49.99;99032.88;5092926;28;20062;-68
2022/04/25 11:31:38;;;;;;;30.65;22.08;;;;;;;15.06;50.28;99035.53;5092215;28;20115;-68
2022/04/25 11:34:11;;;;;;;24.00;21.20;;;;;;;15.03;50.41;99041.09;5093042;28;20067;-68
2022/04/25 11:36:39;;;;;;;23.30;19.25;;;;;;;14.85;49.73;99034.63;5092108;28;20036;-68
2022/04/25 11:41:48;;;;;;;21.02;18.25;;;;;;;14.98;48.83;99027.34;5091470;28;20108;-69
2022/04/25 11:44:14;;;;;;;19.02;15.88;;;;;;;15.35;46.83;99027.88;5092148;28;20035;-69
2022/04/25 11:46:41;;;;;;;20.05;17.60;;;;;;;15.66;47.48;99034.19;5090949;28;20047;-68
2022/04/25 11:49:07;;;;;;;23.60;17.85;;;;;;;15.80;46.42;99035.75;5092375;28;20085;-67
2022/04/25 11:51:35;;;;;;;17.85;15.95;;;;;;;15.99;45.64;99032.41;5092111;28;20024;-68
2022/04/25 11:54:04;;;;;;;18.27;16.05;;;;;;;15.93;46.15;99027.59;5093869;28;20601;-69
2022/04/25 11:56:31;;;;;;;21.02;18.17;;;;;;;15.99;45.74;99020.94;5094815;28;20036;-65
2022/04/25 11:58:58;;;;;;;19.58;17.58;;;;;;;16.06;45.07;99027.41;5094503;28;20036;-67
2022/04/25 12:01:38;;;;;;;18.35;16.48;;;;;;;15.99;44.25;99021.75;5093097;28;20029;-68